KSKA METAR and TAF | Updated Today

KSKA METAR

Fairchild Air Force Base

Observation time: 54 min. ago

KSKA 261358Z AUTO 04008KT 10SM CLR 16/06 A3022 RMK AO2 SLP225 T01560058 PWINO $

Need help? Read our tutorial on how to read METARs or read the parsed version below.

Fairchild Air Force Base (KSKA) METAR

  • Weather conditions on Sun, 26 Jun 2022 13:58:00 +0000 (54 min. ago):
  • Present conditions: Dry
  • Clouds: Clear skies
  • Visibility: 16093 meters
  • Wind: 40 degrees at 8 knots
  • Temperature: 16 celsius
  • Dew point: 6 celsius
  • Pressure: 30.22 inHg
  • Remarks: AO2 SLP225 T01560058 PWINO $


Useful to know...

KSKA TAF

Fairchild Air Force Base

TAF KSKA 261100Z 2611/2717 03009KT 9999 FEW200 QNH3008INS WND 03012KT AFT 2615 TX27/2700Z TN12/2612Z
Observation time: 3:52 hr. ago
Need help? Read our tutorial on how to read TAFs or read the parsed version below.

Parsed version of TAF for Fairchild Air Force Base (KSKA)

  • From 26 June at 11:00 UTC, to day 27 of the month at 17:00 UTC
  • Clouds: A few at 6096 meters
  • Visibility: Greater than 10 km
  • Wind: 30 degrees at 9